»·PEaware :: N734TD KSAN-KLAS

N734TD :: KSAN-KLAS

FLIGHT INFORMATION

Flight Status: Arrived
Operator: Privately registered:
United States
More flights under this callsign
Pilot: Chris S. (2433)
Aircraft: SOCATA TBM-900
(TBM9)
More flights by this aircraft type
Origin: KSAN San Diego Intl-Lindbergh
United States
Destination: KLAS McCarran Intl
United States
More flights between these airports :: More routes between these airports
Route: BORDR7 JLI V514 GFS V538 LAS
File this flight plan on PilotEdge
Remarks:
Altitude:
(Current/Filed)
23,000ft
Speed:
(Current/Filed)
270kts
Departed: 07-Feb-19 09:45 AM
Arrived: 07-Feb-19 10:47 AM
Distance/Time
Traveled:
224nm/1:02
Distance/Time
To Go:
Arrived

Flight Plot

Page will automatically refresh every two minutes.

Flight plan parsing failed; only flown route is shown


Map Options




Map Legend


Flown Route
Filed Route
Departure Airport
Arrival Airport
Navaid (VOR, NDB)
Fix

Horizontal Profiles

Position Reports

Time Latitude Longitude Heading Altitude Ground
Speed
07-Feb-19 09:28 32.734173 -117.185173 193 16ft 0kts
07-Feb-19 09:29 32.734173 -117.185173 193 16ft 0kts
07-Feb-19 09:30 32.734173 -117.185173 193 16ft 0kts
07-Feb-19 09:31 32.734173 -117.185173 193 16ft 0kts
07-Feb-19 09:32 32.734173 -117.185173 193 16ft 0kts
07-Feb-19 09:33 32.734173 -117.185173 193 16ft 0kts
07-Feb-19 09:34 32.734173 -117.185173 193 16ft 0kts
07-Feb-19 09:35 32.734173 -117.185173 193 16ft 0kts
07-Feb-19 09:36 32.734173 -117.185173 193 16ft 0kts
07-Feb-19 09:37 32.734173 -117.185173 193 16ft 0kts
07-Feb-19 09:38 32.734173 -117.185173 193 16ft 0kts
07-Feb-19 09:39 32.733224 -117.183513 104 16ft 13kts
07-Feb-19 09:40 32.732087 -117.178829 106 19ft 13kts
07-Feb-19 09:41 32.730888 -117.175438 142 21ft 0kts
07-Feb-19 09:42 32.730888 -117.175438 142 21ft 0kts
07-Feb-19 09:43 32.730430 -117.175175 167 20ft 11kts
07-Feb-19 09:44 32.736157 -117.197578 292 448ft 128kts
07-Feb-19 09:45 32.749629 -117.241602 288 2255ft 148kts
07-Feb-19 09:46 32.770304 -117.279520 9 3984ft 155kts
07-Feb-19 09:47 32.808802 -117.264837 347 5700ft 156kts
07-Feb-19 09:48 32.841910 -117.238802 65 7291ft 154kts
07-Feb-19 09:49 32.864142 -117.186927 61 8278ft 206kts
07-Feb-19 09:50 32.891813 -117.126839 60 10116ft 179kts
07-Feb-19 09:51 32.915333 -117.075925 61 11982ft 178kts
07-Feb-19 09:52 32.939565 -117.023531 61 13698ft 183kts
07-Feb-19 09:53 32.964396 -116.969749 61 15463ft 187kts
07-Feb-19 09:54 32.989830 -116.914572 60 17052ft 193kts
07-Feb-19 09:55 33.015970 -116.857756 61 18760ft 198kts
07-Feb-19 09:56 33.042868 -116.799206 61 20334ft 203kts
07-Feb-19 09:57 33.070297 -116.739318 61 21860ft 209kts
07-Feb-19 09:58 33.098734 -116.677226 61 23175ft 224kts
07-Feb-19 09:59 33.131955 -116.604506 61 23338ft 267kts
07-Feb-19 10:00 33.189246 -116.543534 35 23327ft 286kts
07-Feb-19 10:01 33.254742 -116.486697 35 23322ft 293kts
07-Feb-19 10:02 33.321572 -116.428527 35 23320ft 295kts
07-Feb-19 10:03 33.388264 -116.370350 35 23320ft 296kts
07-Feb-19 10:04 33.455103 -116.311930 36 23320ft 296kts
07-Feb-19 10:05 33.521801 -116.253524 36 23320ft 296kts
07-Feb-19 10:06 33.588570 -116.194909 36 23320ft 296kts
07-Feb-19 10:07 33.656186 -116.137729 33 23319ft 296kts
07-Feb-19 10:08 33.724958 -116.082547 33 23320ft 296kts
07-Feb-19 10:10 33.793861 -116.027189 33 23320ft 297kts
07-Feb-19 10:11 33.862481 -115.971927 33 23320ft 297kts
07-Feb-19 10:12 33.931351 -115.916350 33 23320ft 297kts
07-Feb-19 10:13 33.999947 -115.860897 33 23320ft 297kts
07-Feb-19 10:14 34.068572 -115.805313 33 23320ft 297kts
07-Feb-19 10:15 34.134443 -115.745021 42 23323ft 296kts
07-Feb-19 10:16 34.194802 -115.677196 42 23320ft 297kts
07-Feb-19 10:17 34.255413 -115.608978 42 23320ft 297kts
07-Feb-19 10:18 34.316003 -115.540651 42 23320ft 297kts
07-Feb-19 10:19 34.390952 -115.501214 19 23321ft 296kts
07-Feb-19 10:20 34.468817 -115.467382 19 23320ft 297kts
07-Feb-19 10:21 34.546640 -115.433459 19 23320ft 297kts
07-Feb-19 10:22 34.624572 -115.399419 19 23320ft 297kts
07-Feb-19 10:23 34.702378 -115.365365 19 23320ft 297kts
07-Feb-19 10:24 34.780408 -115.331147 19 23320ft 297kts
07-Feb-19 10:25 34.858295 -115.296913 19 22900ft 310kts
07-Feb-19 10:25 34.929372 -115.265626 19 21037ft 329kts
07-Feb-19 10:27 35.027451 -115.222331 19 19237ft 318kts
07-Feb-19 10:28 35.112062 -115.184901 19 16949ft 317kts
07-Feb-19 10:29 35.198013 -115.175233 0 14640ft 308kts
07-Feb-19 10:29 35.268411 -115.174059 0 12959ft 300kts
07-Feb-19 10:30 35.351168 -115.172622 0 11433ft 294kts
07-Feb-19 10:32 35.443698 -115.171003 0 10938ft 270kts
07-Feb-19 10:33 35.517565 -115.169706 0 10666ft 259kts
07-Feb-19 10:33 35.578236 -115.168654 0 9790ft 260kts
07-Feb-19 10:34 35.650276 -115.167389 0 8817ft 256kts
07-Feb-19 10:35 35.721315 -115.166141 0 7946ft 253kts
07-Feb-19 10:36 35.788264 -115.149217 12 7942ft 240kts
07-Feb-19 10:37 35.853459 -115.131329 12 7944ft 239kts
07-Feb-19 10:38 35.918451 -115.113470 12 7945ft 239kts
07-Feb-19 10:39 35.982338 -115.095899 12 7002ft 234kts
07-Feb-19 10:40 36.043654 -115.079056 12 5939ft 213kts
07-Feb-19 10:41 36.100474 -115.063452 12 4922ft 189kts
07-Feb-19 10:42 36.133384 -115.091730 293 4074ft 141kts
07-Feb-19 10:43 36.131702 -115.130155 237 3311ft 106kts
07-Feb-19 10:44 36.110317 -115.150265 206 2367ft 89kts
07-Feb-19 10:45 36.090127 -115.161833 202 2119ft 45kts
07-Feb-19 10:46 36.083820 -115.166592 233 2151ft 11kts
07-Feb-19 10:47 36.083392 -115.167161 219 2154ft 9kts
07-Feb-19 10:48 36.081464 -115.169389 243 2164ft 13kts
07-Feb-19 10:49 36.080480 -115.170883 183 2169ft 0kts
07-Feb-19 10:50 36.080481 -115.170883 184 2169ft 0kts
07-Feb-19 10:51 36.080481 -115.170883 184 2169ft 0kts
07-Feb-19 10:52 36.080481 -115.170883 184 2169ft 0kts

Navigation Log

Ident Type
Flight plan parsing failed, navigation log unavailable